Time;durP1;ratioP1;P1;durP2;ratioP2;P2;SDS_P1;SDS_P2;PMS_P1;PMS_P2;Temp;Humidity;BMP_temperature;BMP_pressure;BME280_temperature;BME280_humidity;BME280_pressure;Samples;Min_cycle;Max_cycle;Signal;HPM_P1;HPM_P2
2024/01/01 00:00:37;;;;;;;7.65;6.95;;;8.10;99.90;;;;;;4967351;28;20043;-68
2024/01/01 00:03:03;;;;;;;1.88;1.77;;;8.10;99.90;;;;;;4959385;28;20114;-68
2024/01/01 00:05:29;;;;;;;1.08;1.08;;;8.00;99.90;;;;;;4969059;28;20652;-68
2024/01/01 00:07:54;;;;;;;0.75;0.75;;;8.00;99.90;;;;;;4969395;28;20596;-68
2024/01/01 00:10:20;;;;;;;1.40;0.73;;;8.00;99.90;;;;;;4958246;28;20042;-68
2024/01/01 00:12:46;;;;;;;0.57;0.57;;;8.00;99.90;;;;;;4964261;28;20057;-68
2024/01/01 00:15:12;;;;;;;0.63;0.63;;;8.10;99.90;;;;;;4968382;28;20049;-68
2024/01/01 00:17:39;;;;;;;0.22;0.22;;;8.00;99.90;;;;;;4963214;28;20046;-69
2024/01/01 00:20:05;;;;;;;0.65;0.65;;;8.00;99.90;;;;;;4960389;28;20074;-68
2024/01/01 00:22:31;;;;;;;0.65;0.65;;;7.90;99.90;;;;;;4967634;28;20038;-68
2024/01/01 00:24:58;;;;;;;0.65;0.65;;;8.00;99.90;;;;;;4968963;28;20066;-69
2024/01/01 00:27:24;;;;;;;1.17;1.17;;;8.00;99.90;;;;;;4967499;28;20101;-68
2024/01/01 00:29:50;;;;;;;0.25;0.25;;;8.00;99.90;;;;;;4969475;28;20091;-68
2024/01/01 00:32:16;;;;;;;1.75;1.65;;;7.90;99.90;;;;;;4973178;28;20043;-68
2024/01/01 00:34:42;;;;;;;0.22;0.22;;;8.00;99.90;;;;;;4962863;28;20050;-69
2024/01/01 00:37:08;;;;;;;0.70;0.65;;;8.00;99.90;;;;;;4967628;28;20047;-69
2024/01/01 00:39:33;;;;;;;1.15;1.15;;;8.00;99.90;;;;;;4965659;28;20044;-68
2024/01/01 00:41:59;;;;;;;0.52;0.45;;;7.90;99.90;;;;;;4967640;28;20042;-69
2024/01/01 00:44:26;;;;;;;0.20;0.20;;;7.90;99.90;;;;;;4969911;28;20526;-69
2024/01/01 00:46:52;;;;;;;0.20;0.20;;;7.80;99.90;;;;;;4967842;28;20474;-69
2024/01/01 00:49:17;;;;;;;1.85;1.38;;;7.80;99.90;;;;;;4974966;28;20045;-69
2024/01/01 00:51:43;;;;;;;0.70;0.70;;;7.70;99.90;;;;;;4970702;28;20116;-69
2024/01/01 00:54:10;;;;;;;0.82;0.82;;;7.70;99.90;;;;;;4968586;28;20106;-69
2024/01/01 00:56:35;;;;;;;0.50;0.50;;;7.70;99.90;;;;;;4970993;28;20418;-69
2024/01/01 00:59:01;;;;;;;0.70;0.70;;;7.60;99.90;;;;;;4971476;28;20060;-69
2024/01/01 01:01:27;;;;;;;1.48;1.38;;;7.60;99.90;;;;;;4961490;28;20380;-69
2024/01/01 01:03:52;;;;;;;1.85;1.52;;;7.60;99.90;;;;;;4970434;28;20045;-69
2024/01/01 01:06:19;;;;;;;1.58;1.35;;;7.60;99.90;;;;;;4969198;28;20121;-69
2024/01/01 01:08:45;;;;;;;0.30;0.30;;;7.60;99.90;;;;;;4962576;28;20072;-69
2024/01/01 01:11:10;;;;;;;0.55;0.55;;;7.50;99.90;;;;;;4970256;28;20041;-69
2024/01/01 01:13:36;;;;;;;1.85;1.75;;;7.40;99.90;;;;;;4964297;28;20415;-69
2024/01/01 01:16:02;;;;;;;1.02;0.93;;;7.50;99.90;;;;;;4971641;28;20078;-69
2024/01/01 01:18:28;;;;;;;0.73;0.73;;;7.50;99.90;;;;;;4965758;28;20031;-69
2024/01/01 01:20:53;;;;;;;0.65;0.65;;;7.40;99.90;;;;;;4962597;28;20097;-69
2024/01/01 01:23:19;;;;;;;0.75;0.75;;;7.50;99.90;;;;;;4961931;28;20043;-69
2024/01/01 01:25:45;;;;;;;0.70;0.70;;;7.50;99.90;;;;;;5000307;28;20423;-69
2024/01/01 01:28:10;;;;;;;7.78;2.40;;;7.50;99.90;;;;;;4972676;28;20051;-69
2024/01/01 01:30:36;;;;;;;1.42;1.42;;;7.60;99.90;;;;;;4965656;28;20047;-69
2024/01/01 01:33:02;;;;;;;1.65;1.55;;;7.60;99.90;;;;;;4963064;28;20047;-69
2024/01/01 01:35:27;;;;;;;3.80;2.30;;;7.60;99.90;;;;;;4969036;28;20046;-69
2024/01/01 01:37:53;;;;;;;0.45;0.45;;;7.60;99.90;;;;;;4961716;28;20105;-69
2024/01/01 01:40:18;;;;;;;2.78;2.13;;;7.70;99.90;;;;;;4975832;28;20042;-69
2024/01/01 01:42:46;;;;;;;1.40;1.40;;;7.70;99.90;;;;;;4959985;28;20129;-69
2024/01/01 01:45:12;;;;;;;4.75;3.70;;;7.70;99.90;;;;;;4966176;28;20046;-69
2024/01/01 01:47:37;;;;;;;5.70;2.88;;;7.70;99.90;;;;;;4977039;28;20681;-69
2024/01/01 01:50:06;;;;;;;2.40;2.28;;;7.70;99.90;;;;;;4961623;28;20113;-70
2024/01/01 01:52:32;;;;;;;4.75;1.52;;;7.60;99.90;;;;;;4964121;28;20034;-69
2024/01/01 01:54:58;;;;;;;1.10;1.10;;;7.60;99.90;;;;;;4973317;28;20058;-70
2024/01/01 01:57:24;;;;;;;2.42;2.28;;;7.60;99.90;;;;;;4975213;28;20046;-70
2024/01/01 01:59:49;;;;;;;1.58;1.33;;;7.60;99.90;;;;;;4969422;28;20039;-70
2024/01/01 02:02:17;;;;;;;0.55;0.55;;;7.50;99.90;;;;;;4970845;28;20086;-69
2024/01/01 02:04:43;;;;;;;1.13;1.13;;;7.50;99.90;;;;;;4962497;28;20082;-69
2024/01/01 02:07:08;;;;;;;2.50;2.38;;;7.60;99.90;;;;;;4962708;28;20605;-70
2024/01/01 02:09:34;;;;;;;0.47;0.47;;;7.50;99.90;;;;;;4969821;28;20494;-70
2024/01/01 02:11:59;;;;;;;5.32;2.95;;;7.50;99.90;;;;;;4958510;28;20423;-70
2024/01/01 02:14:25;;;;;;;1.52;1.42;;;7.50;99.90;;;;;;4965398;28;20050;-69
2024/01/01 02:16:51;;;;;;;4.50;4.03;;;7.50;99.90;;;;;;4967910;28;20039;-70
2024/01/01 02:19:19;;;;;;;4.85;4.03;;;7.50;99.90;;;;;;4966506;28;20046;-70
2024/01/01 02:21:46;;;;;;;2.47;2.28;;;7.50;99.90;;;;;;4965665;28;20062;-69
2024/01/01 02:24:11;;;;;;;0.65;0.65;;;7.50;99.90;;;;;;4960585;28;20051;-69
2024/01/01 02:26:37;;;;;;;1.00;1.00;;;7.50;99.90;;;;;;4965425;28;20043;-69
2024/01/01 02:29:03;;;;;;;1.55;1.45;;;7.40;99.90;;;;;;4970793;28;20062;-69
2024/01/01 02:31:28;;;;;;;3.25;2.83;;;7.40;99.90;;;;;;4975221;28;20046;-69
2024/01/01 02:33:54;;;;;;;0.47;0.47;;;7.40;99.90;;;;;;4962260;28;20047;-69
2024/01/01 02:36:21;;;;;;;1.63;1.52;;;7.40;99.90;;;;;;4964744;28;20047;-69
2024/01/01 02:38:47;;;;;;;0.30;0.30;;;7.40;99.90;;;;;;4968578;28;20051;-69
2024/01/01 02:41:13;;;;;;;1.98;1.88;;;7.40;99.90;;;;;;4958897;28;20054;-70
2024/01/01 02:43:38;;;;;;;0.20;0.20;;;7.40;99.90;;;;;;4963892;28;20502;-69
2024/01/01 02:46:04;;;;;;;0.25;0.25;;;7.40;99.90;;;;;;4967786;28;20422;-69
2024/01/01 02:48:29;;;;;;;2.30;2.20;;;7.40;99.90;;;;;;4958362;28;20303;-69
2024/01/01 02:50:55;;;;;;;0.65;0.45;;;7.40;99.90;;;;;;4960584;28;20105;-69
2024/01/01 02:53:20;;;;;;;0.50;0.50;;;7.40;99.90;;;;;;4963641;28;20050;-69
2024/01/01 02:55:46;;;;;;;1.23;1.13;;;7.40;99.90;;;;;;4969110;28;20479;-70
2024/01/01 02:58:12;;;;;;;0.25;0.25;;;7.40;99.90;;;;;;4964906;28;20047;-69
2024/01/01 03:00:37;;;;;;;0.40;0.40;;;7.40;99.90;;;;;;4977973;28;20414;-69
2024/01/01 03:03:03;;;;;;;0.73;0.73;;;7.40;99.90;;;;;;4965638;28;20047;-70
2024/01/01 03:05:29;;;;;;;0.68;0.68;;;7.40;99.90;;;;;;4965353;28;20491;-70
2024/01/01 03:07:55;;;;;;;0.30;0.30;;;7.40;99.90;;;;;;4958837;28;20070;-69
2024/01/01 03:10:20;;;;;;;2.30;0.75;;;7.40;99.90;;;;;;4964152;28;20054;-70
2024/01/01 03:12:46;;;;;;;0.20;0.20;;;7.40;99.90;;;;;;4963498;28;20142;-69
2024/01/01 03:15:12;;;;;;;0.30;0.30;;;7.50;99.90;;;;;;4968828;28;20521;-69
2024/01/01 03:17:38;;;;;;;0.35;0.35;;;7.40;99.90;;;;;;4964063;28;20051;-69
2024/01/01 03:20:04;;;;;;;0.10;0.10;;;7.50;99.90;;;;;;4966341;28;20038;-69
2024/01/01 03:22:30;;;;;;;1.25;1.17;;;7.40;99.90;;;;;;4958943;28;20047;-69
2024/01/01 03:24:56;;;;;;;0.20;0.20;;;7.40;99.90;;;;;;4966878;28;20506;-69
2024/01/01 03:27:21;;;;;;;0.20;0.20;;;7.40;99.90;;;;;;4966356;28;20035;-69
2024/01/01 03:29:48;;;;;;;1.25;0.38;;;7.40;99.90;;;;;;4963295;28;20478;-70
2024/01/01 03:32:14;;;;;;;0.20;0.20;;;7.40;99.90;;;;;;4969440;28;20464;-69
2024/01/01 03:34:39;;;;;;;0.30;0.30;;;7.40;99.90;;;;;;4965662;28;20066;-69
2024/01/01 03:37:05;;;;;;;0.60;0.60;;;7.40;99.90;;;;;;4963877;28;20133;-70
2024/01/01 03:39:30;;;;;;;2.38;1.98;;;7.50;99.90;;;;;;4965777;28;20054;-70
2024/01/01 03:41:56;;;;;;;1.48;1.40;;;7.40;99.90;;;;;;4968433;28;20533;-69
2024/01/01 03:44:21;;;;;;;0.70;0.70;;;7.40;99.90;;;;;;4970193;28;20078;-69
2024/01/01 03:46:47;;;;;;;0.52;0.52;;;7.40;99.90;;;;;;4965759;28;20093;-69
2024/01/01 03:49:13;;;;;;;0.73;0.73;;;7.50;99.90;;;;;;4964316;28;20103;-69
2024/01/01 03:51:38;;;;;;;0.10;0.10;;;7.50;99.90;;;;;;4968947;28;20038;-69
2024/01/01 03:54:04;;;;;;;0.90;0.82;;;7.50;99.90;;;;;;4965925;28;20114;-69
2024/01/01 03:56:29;;;;;;;0.25;0.25;;;7.50;99.90;;;;;;4962224;28;20046;-69
2024/01/01 03:58:56;;;;;;;0.80;0.80;;;7.40;99.90;;;;;;4965803;28;20048;-69
2024/01/01 04:01:22;;;;;;;0.15;0.15;;;7.50;99.90;;;;;;4971661;28;20055;-69
2024/01/01 04:03:48;;;;;;;0.10;0.10;;;7.40;99.90;;;;;;4961193;28;20493;-69
2024/01/01 04:06:14;;;;;;;0.10;0.10;;;7.50;99.90;;;;;;4973589;28;20035;-69
2024/01/01 04:08:39;;;;;;;0.20;0.20;;;7.40;99.90;;;;;;4974030;28;20050;-69
2024/01/01 04:11:05;;;;;;;0.50;0.50;;;7.40;99.90;;;;;;4973922;28;20046;-69
2024/01/01 04:13:30;;;;;;;0.20;0.20;;;7.40;99.90;;;;;;4963337;28;20051;-69
2024/01/01 04:15:56;;;;;;;0.10;0.10;;;7.50;99.90;;;;;;4966068;28;20075;-69
2024/01/01 04:18:22;;;;;;;0.10;0.10;;;7.50;99.90;;;;;;4964088;28;20039;-69
2024/01/01 04:20:48;;;;;;;0.10;0.10;;;7.50;99.90;;;;;;4964213;28;20051;-69
2024/01/01 04:23:13;;;;;;;0.10;0.10;;;7.50;99.90;;;;;;4959249;28;20051;-69
2024/01/01 04:25:39;;;;;;;2.55;2.05;;;7.50;99.90;;;;;;4981757;28;20051;-69
2024/01/01 04:28:05;;;;;;;0.10;0.10;;;7.50;99.90;;;;;;4972305;28;20182;-70
2024/01/01 04:30:30;;;;;;;0.10;0.10;;;7.50;99.90;;;;;;4964368;28;20035;-70
2024/01/01 04:32:56;;;;;;;0.10;0.10;;;7.40;99.90;;;;;;4982511;28;20045;-70
2024/01/01 04:35:21;;;;;;;0.10;0.10;;;7.40;99.90;;;;;;4969659;28;20492;-70
2024/01/01 04:37:47;;;;;;;0.10;0.10;;;7.40;99.90;;;;;;4960605;28;20039;-69
2024/01/01 04:40:13;;;;;;;0.10;0.10;;;7.40;99.90;;;;;;4962704;28;20062;-70
2024/01/01 04:42:39;;;;;;;0.10;0.10;;;7.40;99.90;;;;;;4970836;28;20414;-70
2024/01/01 04:45:06;;;;;;;0.10;0.10;;;7.40;99.90;;;;;;4968183;28;20125;-70
2024/01/01 04:47:31;;;;;;;0.10;0.10;;;7.40;99.90;;;;;;4974706;28;20145;-70
2024/01/01 04:49:57;;;;;;;0.10;0.10;;;7.40;99.90;;;;;;4965357;28;20038;-70
2024/01/01 04:52:22;;;;;;;0.45;0.45;;;7.40;99.90;;;;;;4967551;28;20047;-70
2024/01/01 04:54:48;;;;;;;0.10;0.10;;;7.40;99.90;;;;;;4966201;28;20055;-69
2024/01/01 04:57:14;;;;;;;0.20;0.20;;;7.40;99.90;;;;;;4971445;28;20097;-70
2024/01/01 04:59:39;;;;;;;0.10;0.10;;;7.40;99.90;;;;;;4959230;28;20415;-70
2024/01/01 05:02:05;;;;;;;0.00;0.00;;;7.40;99.90;;;;;;4963283;28;20043;-70
2024/01/01 05:04:30;;;;;;;0.10;0.10;;;7.40;99.90;;;;;;4963121;28;20046;-70
2024/01/01 05:06:56;;;;;;;0.10;0.10;;;7.40;99.90;;;;;;4967883;28;20046;-69
2024/01/01 05:09:21;;;;;;;0.10;0.10;;;7.40;99.90;;;;;;4969019;28;20049;-69
2024/01/01 05:11:47;;;;;;;0.57;0.57;;;7.40;99.90;;;;;;4965394;28;20094;-70
2024/01/01 05:14:12;;;;;;;0.10;0.10;;;7.40;99.90;;;;;;4969064;28;20042;-70
2024/01/01 05:16:43;;;;;;;0.10;0.10;;;7.40;99.90;;;;;;4986053;28;20126;-69
2024/01/01 05:19:08;;;;;;;0.10;0.10;;;7.30;99.90;;;;;;4964856;28;20114;-69
2024/01/01 05:21:34;;;;;;;0.10;0.10;;;7.40;99.90;;;;;;4980344;28;20703;-69
2024/01/01 05:23:59;;;;;;;0.10;0.10;;;7.30;99.90;;;;;;4967881;28;20402;-69
2024/01/01 05:26:25;;;;;;;0.10;0.10;;;7.40;99.90;;;;;;4979255;28;20070;-69
2024/01/01 05:28:51;;;;;;;0.10;0.10;;;7.40;99.90;;;;;;4967267;28;20081;-69
2024/01/01 05:31:20;;;;;;;0.10;0.10;;;7.40;99.90;;;;;;4977149;28;20102;-69
2024/01/01 05:33:46;;;;;;;0.10;0.10;;;7.40;99.90;;;;;;4962228;28;20093;-69
2024/01/01 05:36:13;;;;;;;0.10;0.10;;;7.50;99.90;;;;;;4981042;28;20034;-69
2024/01/01 05:38:39;;;;;;;0.50;0.50;;;7.40;99.90;;;;;;4961143;28;20550;-69
2024/01/01 05:41:04;;;;;;;0.40;0.40;;;7.50;99.90;;;;;;4962962;28;20046;-69
2024/01/01 05:43:31;;;;;;;2.10;1.05;;;7.60;99.90;;;;;;4962029;28;20055;-70
2024/01/01 05:45:57;;;;;;;0.30;0.30;;;7.60;99.90;;;;;;4969967;28;20059;-69
2024/01/01 05:48:22;;;;;;;0.10;0.10;;;7.60;99.90;;;;;;4971700;28;20034;-69
2024/01/01 05:50:48;;;;;;;0.10;0.10;;;7.60;99.90;;;;;;4962300;28;20097;-69
2024/01/01 05:53:14;;;;;;;0.10;0.10;;;7.60;99.90;;;;;;4966594;28;20067;-69
2024/01/01 05:55:39;;;;;;;1.08;1.08;;;7.70;99.90;;;;;;4971846;28;20035;-69
2024/01/01 05:58:05;;;;;;;1.15;1.08;;;7.70;99.90;;;;;;4958992;28;20521;-69
2024/01/01 06:00:36;;;;;;;0.10;0.10;;;7.70;99.90;;;;;;4967896;28;20042;-69
2024/01/01 06:03:05;;;;;;;0.28;0.28;;;7.70;99.90;;;;;;4974818;28;20051;-69
2024/01/01 06:05:35;;;;;;;1.40;1.30;;;7.80;99.90;;;;;;4969223;28;20457;-69
2024/01/01 06:08:02;;;;;;;0.10;0.10;;;7.80;99.90;;;;;;4962979;28;20062;-69
2024/01/01 06:10:32;;;;;;;1.42;1.10;;;7.80;99.90;;;;;;4969881;28;20450;-69
2024/01/01 06:12:58;;;;;;;1.35;1.33;;;7.80;99.90;;;;;;4969088;28;20192;-69
2024/01/01 06:15:24;;;;;;;0.38;0.38;;;7.80;99.90;;;;;;4971712;28;20483;-70
2024/01/01 06:17:50;;;;;;;0.20;0.20;;;7.70;99.90;;;;;;4965188;28;20125;-70
2024/01/01 06:20:16;;;;;;;0.10;0.10;;;7.70;99.90;;;;;;4963155;28;20055;-70
2024/01/01 06:22:43;;;;;;;0.10;0.10;;;7.70;99.90;;;;;;4960735;28;20051;-70
2024/01/01 06:25:10;;;;;;;0.80;0.80;;;7.70;99.90;;;;;;4968088;28;20553;-70
2024/01/01 06:27:37;;;;;;;0.20;0.20;;;7.60;99.90;;;;;;4964875;28;20070;-70
2024/01/01 06:30:03;;;;;;;0.45;0.45;;;7.50;99.90;;;;;;4970263;28;20031;-69
2024/01/01 06:32:29;;;;;;;0.10;0.10;;;7.40;99.90;;;;;;4967613;28;20043;-70
2024/01/01 06:34:54;;;;;;;0.13;0.13;;;7.30;99.90;;;;;;4960765;28;20157;-70
2024/01/01 06:37:20;;;;;;;0.10;0.10;;;7.20;99.90;;;;;;4969248;28;20058;-70
2024/01/01 06:39:46;;;;;;;0.10;0.10;;;7.10;99.90;;;;;;4968849;28;20062;-69
2024/01/01 06:42:12;;;;;;;0.10;0.10;;;7.10;99.90;;;;;;4968951;28;20406;-69
2024/01/01 06:44:37;;;;;;;0.10;0.10;;;7.10;99.90;;;;;;4958045;28;20479;-69
2024/01/01 06:47:03;;;;;;;0.10;0.10;;;7.00;99.90;;;;;;4963907;28;20050;-69
2024/01/01 06:49:29;;;;;;;0.10;0.10;;;7.00;99.90;;;;;;4963337;28;20039;-69
2024/01/01 06:51:55;;;;;;;0.10;0.10;;;7.00;99.90;;;;;;4969391;28;20953;-70
2024/01/01 06:54:20;;;;;;;0.00;0.00;;;7.00;99.90;;;;;;4969907;28;20427;-69
2024/01/01 06:56:46;;;;;;;0.10;0.10;;;7.00;99.90;;;;;;4959549;28;20065;-69
2024/01/01 06:59:15;;;;;;;0.10;0.10;;;7.00;99.90;;;;;;4963560;28;20391;-69
2024/01/01 07:01:42;;;;;;;0.10;0.10;;;7.00;99.90;;;;;;4965372;28;20050;-69
2024/01/01 07:04:08;;;;;;;0.10;0.10;;;7.00;99.90;;;;;;4972525;28;20046;-69
2024/01/01 07:06:34;;;;;;;0.10;0.10;;;7.00;99.90;;;;;;4967633;28;20049;-69
2024/01/01 07:09:00;;;;;;;0.10;0.10;;;7.00;99.90;;;;;;4964762;28;20055;-69
2024/01/01 07:11:26;;;;;;;0.00;0.00;;;7.00;99.90;;;;;;4959193;28;20041;-69
2024/01/01 07:13:51;;;;;;;0.10;0.10;;;7.00;99.90;;;;;;4964469;28;20108;-69
2024/01/01 07:16:17;;;;;;;0.10;0.10;;;7.10;99.90;;;;;;4970985;28;20089;-69
2024/01/01 07:18:42;;;;;;;0.10;0.10;;;7.10;99.90;;;;;;4969686;28;20049;-69
2024/01/01 07:21:08;;;;;;;0.10;0.10;;;7.10;99.90;;;;;;4960153;28;20047;-69
2024/01/01 07:23:34;;;;;;;0.65;0.65;;;7.10;99.90;;;;;;4964417;28;20053;-69
2024/01/01 07:26:00;;;;;;;0.10;0.10;;;7.20;99.90;;;;;;4960055;28;20045;-68
2024/01/01 07:28:26;;;;;;;0.10;0.10;;;7.20;99.90;;;;;;4957642;28;20122;-69
2024/01/01 07:30:52;;;;;;;0.30;0.30;;;7.20;99.90;;;;;;4962820;28;20491;-68
2024/01/01 07:33:17;;;;;;;0.50;0.50;;;7.20;99.90;;;;;;4968007;28;20035;-68
2024/01/01 07:35:43;;;;;;;0.10;0.10;;;7.20;99.90;;;;;;4961876;28;20082;-69
2024/01/01 07:38:09;;;;;;;0.77;0.73;;;7.30;99.90;;;;;;4969480;28;20403;-69
2024/01/01 07:40:35;;;;;;;0.10;0.10;;;7.30;99.90;;;;;;4963452;28;20050;-69
2024/01/01 07:43:01;;;;;;;0.95;0.95;;;7.40;99.90;;;;;;4968281;28;20108;-69
2024/01/01 07:45:26;;;;;;;0.10;0.10;;;7.40;99.90;;;;;;4968046;28;20054;-69
2024/01/01 07:47:52;;;;;;;0.10;0.10;;;7.50;99.90;;;;;;4963452;28;20043;-69
2024/01/01 07:50:18;;;;;;;0.13;0.13;;;7.50;99.90;;;;;;4962048;28;20471;-69
2024/01/01 07:52:43;;;;;;;0.10;0.10;;;7.50;99.90;;;;;;4963841;28;20105;-69
2024/01/01 07:55:11;;;;;;;1.10;1.00;;;7.50;99.90;;;;;;4966938;28;20486;-69
2024/01/01 07:57:36;;;;;;;0.10;0.10;;;7.50;99.90;;;;;;4962462;28;20097;-69
2024/01/01 08:00:04;;;;;;;0.10;0.10;;;7.50;99.90;;;;;;4957456;28;20039;-70
2024/01/01 08:02:30;;;;;;;5.75;2.47;;;7.50;99.90;;;;;;4970675;28;20470;-70
2024/01/01 08:04:56;;;;;;;0.00;0.00;;;7.50;99.90;;;;;;4966111;28;20070;-69
2024/01/01 08:07:22;;;;;;;0.15;0.15;;;7.60;99.90;;;;;;4957628;28;20454;-69
2024/01/01 08:09:47;;;;;;;34.38;1.42;;;7.60;99.90;;;;;;4962754;28;20426;-69
2024/01/01 08:12:13;;;;;;;0.82;0.82;;;7.60;99.90;;;;;;4957338;28;20043;-69
2024/01/01 08:14:40;;;;;;;0.17;0.17;;;7.70;99.90;;;;;;4966907;28;20190;-69
2024/01/01 08:17:06;;;;;;;0.10;0.10;;;7.70;99.90;;;;;;4961763;28;20047;-69
2024/01/01 08:19:31;;;;;;;1.35;0.35;;;7.60;99.90;;;;;;4963600;28;20451;-69
2024/01/01 08:21:57;;;;;;;0.10;0.10;;;7.60;99.90;;;;;;4955983;28;20070;-69
2024/01/01 08:24:23;;;;;;;0.22;0.22;;;7.60;99.90;;;;;;4963414;28;20049;-71
2024/01/01 08:26:48;;;;;;;0.30;0.30;;;7.50;99.90;;;;;;4959736;28;20495;-70
2024/01/01 08:29:14;;;;;;;0.10;0.10;;;7.50;99.90;;;;;;4960685;28;20051;-70
2024/01/01 08:31:40;;;;;;;0.10;0.10;;;7.40;99.90;;;;;;4965550;28;20063;-70
2024/01/01 08:34:05;;;;;;;0.10;0.10;;;7.40;99.90;;;;;;4962974;28;20050;-67
2024/01/01 08:36:31;;;;;;;0.63;0.63;;;7.40;99.90;;;;;;4991108;28;20096;-70
2024/01/01 08:38:57;;;;;;;0.10;0.10;;;7.40;99.90;;;;;;4966411;28;20059;-69
2024/01/01 08:41:22;;;;;;;0.10;0.10;;;7.30;99.90;;;;;;4965553;28;20043;-69
2024/01/01 08:43:56;;;;;;;0.20;0.20;;;7.40;99.90;;;;;;4968635;28;20059;-69
2024/01/01 08:46:23;;;;;;;11.32;3.30;;;7.30;99.90;;;;;;4971531;28;20069;-69
2024/01/01 08:48:49;;;;;;;3.00;1.00;;;7.40;99.90;;;;;;4975688;28;20058;-69
2024/01/01 08:51:15;;;;;;;0.20;0.20;;;7.40;99.90;;;;;;4962930;28;20039;-69
2024/01/01 08:53:40;;;;;;;0.45;0.45;;;7.40;99.90;;;;;;4967814;28;20166;-69
2024/01/01 08:56:06;;;;;;;2.25;1.65;;;7.50;99.90;;;;;;4965379;28;20050;-69
2024/01/01 08:58:32;;;;;;;0.10;0.10;;;7.50;99.90;;;;;;4964702;28;20487;-69
2024/01/01 09:00:57;;;;;;;0.10;0.10;;;7.50;99.90;;;;;;4971138;28;20130;-69
2024/01/01 09:03:23;;;;;;;0.22;0.22;;;7.50;99.90;;;;;;4975656;28;20061;-69
2024/01/01 09:05:49;;;;;;;0.10;0.10;;;7.50;99.90;;;;;;4961116;28;20066;-69
2024/01/01 09:08:14;;;;;;;0.10;0.10;;;7.60;99.90;;;;;;4973599;28;20904;-69
2024/01/01 09:10:40;;;;;;;0.20;0.20;;;7.60;99.90;;;;;;4975375;28;20105;-69
2024/01/01 09:13:07;;;;;;;0.10;0.10;;;7.60;99.90;;;;;;4969661;28;20043;-69
2024/01/01 09:15:32;;;;;;;0.70;0.70;;;7.60;99.90;;;;;;4967383;28;20058;-69
2024/01/01 09:17:58;;;;;;;0.00;0.00;;;7.70;99.90;;;;;;4968960;28;20045;-69
2024/01/01 09:20:24;;;;;;;0.10;0.10;;;7.70;99.90;;;;;;4976533;28;20146;-69
2024/01/01 09:22:51;;;;;;;0.98;0.82;;;7.60;99.90;;;;;;4962608;28;20093;-69
2024/01/01 09:25:18;;;;;;;2.10;2.00;;;7.50;99.90;;;;;;4964225;28;20536;-70
2024/01/01 09:27:44;;;;;;;0.10;0.10;;;7.50;99.90;;;;;;4963716;28;20046;-69
2024/01/01 09:30:10;;;;;;;0.10;0.10;;;7.50;99.90;;;;;;4970773;28;20078;-69
2024/01/01 09:32:36;;;;;;;5.28;1.25;;;7.50;99.90;;;;;;4973070;28;20149;-68
2024/01/01 09:35:01;;;;;;;0.10;0.10;;;7.60;99.90;;;;;;4975082;28;20039;-68
2024/01/01 09:37:27;;;;;;;0.00;0.00;;;7.60;99.90;;;;;;4962510;28;20039;-69
2024/01/01 09:39:53;;;;;;;0.10;0.10;;;7.70;99.90;;;;;;4979550;28;20054;-68
2024/01/01 09:42:18;;;;;;;1.83;1.75;;;7.80;99.90;;;;;;4968040;28;20058;-68
2024/01/01 09:44:49;;;;;;;0.38;0.38;;;7.80;99.90;;;;;;4967711;28;20047;-68
2024/01/01 09:47:15;;;;;;;4.88;2.00;;;7.90;99.90;;;;;;4969898;28;20123;-68
2024/01/01 09:49:41;;;;;;;0.65;0.65;;;7.90;99.90;;;;;;4971979;28;20100;-67
2024/01/01 09:52:06;;;;;;;0.10;0.10;;;8.00;99.90;;;;;;4959054;28;20046;-68
2024/01/01 09:54:34;;;;;;;0.10;0.10;;;8.00;99.90;;;;;;4968434;28;20031;-68
2024/01/01 09:56:59;;;;;;;0.00;0.00;;;8.10;99.90;;;;;;4970653;28;20046;-68
2024/01/01 09:59:39;;;;;;;0.10;0.10;;;8.10;99.90;;;;;;4971872;28;20591;-68
2024/01/01 10:02:06;;;;;;;0.10;0.10;;;8.10;99.90;;;;;;4960165;28;20075;-68
2024/01/01 10:04:32;;;;;;;0.10;0.10;;;8.10;99.90;;;;;;4966407;28;20067;-68
2024/01/01 10:07:00;;;;;;;0.22;0.22;;;8.10;99.90;;;;;;4972817;28;20076;-68
2024/01/01 10:09:27;;;;;;;0.08;0.08;;;8.10;99.90;;;;;;4958898;28;20042;-68
2024/01/01 10:12:01;;;;;;;0.77;0.77;;;8.10;99.90;;;;;;4962120;28;20043;-68
2024/01/01 10:14:27;;;;;;;0.10;0.10;;;8.10;99.90;;;;;;4965241;28;20042;-68
2024/01/01 10:16:52;;;;;;;0.52;0.52;;;8.10;99.90;;;;;;4972493;28;20054;-67
2024/01/01 10:19:18;;;;;;;0.17;0.17;;;8.10;99.90;;;;;;4962897;28;20043;-68
2024/01/01 10:21:44;;;;;;;0.17;0.17;;;8.10;99.90;;;;;;4965374;28;20061;-67
2024/01/01 10:24:18;;;;;;;0.10;0.10;;;8.20;99.90;;;;;;4969959;28;20066;-67
2024/01/01 10:26:46;;;;;;;0.10;0.10;;;8.30;99.90;;;;;;4964016;28;20047;-68
2024/01/01 10:29:13;;;;;;;1.33;1.23;;;8.30;99.90;;;;;;4958400;28;20073;-67
2024/01/01 10:31:45;;;;;;;3.00;2.17;;;8.20;99.90;;;;;;4966633;28;20053;-68
2024/01/01 10:34:12;;;;;;;1.75;1.05;;;8.20;99.90;;;;;;4958742;28;20055;-68
2024/01/01 10:36:40;;;;;;;0.15;0.15;;;8.20;99.90;;;;;;4965529;28;20127;-68
2024/01/01 10:39:06;;;;;;;0.10;0.10;;;8.30;99.90;;;;;;4970167;28;20054;-67
2024/01/01 10:41:34;;;;;;;0.00;0.00;;;8.20;99.90;;;;;;4968504;28;20051;-68
2024/01/01 10:44:01;;;;;;;0.10;0.10;;;8.20;99.90;;;;;;4961762;28;20046;-67
2024/01/01 10:46:28;;;;;;;0.10;0.10;;;8.30;99.90;;;;;;4968634;28;20125;-68
2024/01/01 10:48:54;;;;;;;0.10;0.10;;;8.30;99.90;;;;;;4970546;28;20051;-67
2024/01/01 10:51:41;;;;;;;1.42;1.38;;;8.30;99.90;;;;;;4963322;28;20412;-67
2024/01/01 10:54:46;;;;;;;0.10;0.10;;;8.30;99.90;;;;;;4971565;28;20060;-67
2024/01/01 10:57:17;;;;;;;0.10;0.10;;;8.40;99.90;;;;;;4967088;28;20094;-67
2024/01/01 10:59:51;;;;;;;3.42;1.10;;;8.40;99.90;;;;;;4968473;28;20144;-67
2024/01/01 11:02:17;;;;;;;0.10;0.10;;;8.30;99.90;;;;;;4961938;28;20125;-67
2024/01/01 11:04:47;;;;;;;0.10;0.10;;;8.30;99.90;;;;;;4964098;28;20605;-67
2024/01/01 11:07:13;;;;;;;1.70;1.02;;;8.30;99.90;;;;;;4970726;28;20047;-67
2024/01/01 11:09:39;;;;;;;0.60;0.55;;;8.30;99.90;;;;;;4965416;28;20110;-67
2024/01/01 11:12:05;;;;;;;0.20;0.20;;;8.30;99.90;;;;;;4957328;28;20415;-67
2024/01/01 11:14:34;;;;;;;0.10;0.10;;;8.30;99.90;;;;;;4962701;28;20750;-67
2024/01/01 11:17:06;;;;;;;0.15;0.15;;;8.30;99.90;;;;;;4964628;28;20502;-67
2024/01/01 11:19:36;;;;;;;0.10;0.10;;;8.30;99.90;;;;;;4956436;28;20125;-67
2024/01/01 11:22:20;;;;;;;0.82;0.82;;;8.30;99.90;;;;;;4962466;28;20498;-67
2024/01/01 11:24:46;;;;;;;;;;;8.20;99.90;;;;;;4984982;28;20932;-66
2024/01/01 11:27:28;;;;;;;0.00;0.00;;;8.30;99.90;;;;;;4957819;28;20034;-67
2024/01/01 11:29:58;;;;;;;0.10;0.10;;;8.20;99.90;;;;;;4954716;28;20050;-66
2024/01/01 11:32:24;;;;;;;0.20;0.20;;;8.20;99.90;;;;;;4958924;28;20506;-66
2024/01/01 11:35:08;;;;;;;0.20;0.20;;;8.20;99.90;;;;;;4969072;28;20073;-66
2024/01/01 11:37:35;;;;;;;0.13;0.13;;;8.20;99.90;;;;;;4968464;28;20089;-66
2024/01/01 11:40:02;;;;;;;0.10;0.10;;;8.30;99.90;;;;;;4964417;28;20074;-67
2024/01/01 11:42:28;;;;;;;0.10;0.10;;;8.30;99.90;;;;;;4967316;28;20054;-65
2024/01/01 11:45:16;;;;;;;34.40;1.10;;;8.30;99.90;;;;;;4969905;28;20097;-67
2024/01/01 11:47:43;;;;;;;0.38;0.38;;;8.30;99.90;;;;;;4965485;28;20374;-67
2024/01/01 11:50:10;;;;;;;4.97;1.00;;;8.30;99.90;;;;;;4967390;28;20051;-67
2024/01/01 11:52:36;;;;;;;3.17;1.65;;;8.30;99.90;;;;;;4962306;28;20728;-68
2024/01/01 11:55:02;;;;;;;0.43;0.43;;;8.30;99.90;;;;;;4969805;28;20109;-67
2024/01/01 11:57:28;;;;;;;2.08;0.85;;;8.30;99.90;;;;;;4968216;28;20387;-67
2024/01/01 11:59:54;;;;;;;0.30;0.30;;;8.30;99.90;;;;;;4953826;28;20066;-67
2024/01/01 12:02:21;;;;;;;0.10;0.10;;;8.30;99.90;;;;;;4957068;28;20086;-67
2024/01/01 12:04:48;;;;;;;0.10;0.10;;;8.30;99.90;;;;;;4965310;28;20054;-67
2024/01/01 12:07:29;;;;;;;0.20;0.20;;;8.30;99.90;;;;;;4974551;28;20044;-67
2024/01/01 12:10:06;;;;;;;0.30;0.30;;;8.30;99.90;;;;;;4961766;28;20398;-68
2024/01/01 12:12:33;;;;;;;0.20;0.20;;;8.30;99.90;;;;;;4966852;28;20051;-68
2024/01/01 12:15:16;;;;;;;0.68;0.68;;;8.30;99.90;;;;;;4965057;28;20041;-68
2024/01/01 12:17:43;;;;;;;0.10;0.10;;;8.30;99.90;;;;;;4982138;28;20057;-68
2024/01/01 12:20:09;;;;;;;0.10;0.10;;;8.30;99.90;;;;;;4967268;28;20541;-68
2024/01/01 12:22:36;;;;;;;1.75;1.65;;;8.30;99.90;;;;;;4968365;28;20055;-68
2024/01/01 12:25:02;;;;;;;1.48;1.20;;;8.30;99.90;;;;;;4969425;28;20066;-68
2024/01/01 12:27:27;;;;;;;0.80;0.52;;;8.40;99.90;;;;;;4955481;28;20050;-68
2024/01/01 12:29:57;;;;;;;0.10;0.10;;;8.40;99.90;;;;;;4963867;28;20403;-68
2024/01/01 12:32:23;;;;;;;0.43;0.43;;;8.40;99.90;;;;;;4967785;28;20066;-69
2024/01/01 12:34:50;;;;;;;1.75;1.30;;;8.40;99.90;;;;;;4963924;28;20069;-68
2024/01/01 12:37:15;;;;;;;0.20;0.20;;;8.40;99.90;;;;;;4970826;28;20123;-69
2024/01/01 12:39:41;;;;;;;0.00;0.00;;;8.40;99.90;;;;;;4963687;28;20063;-67
2024/01/01 12:42:06;;;;;;;0.40;0.40;;;8.40;99.90;;;;;;4955071;28;20089;-66
2024/01/01 12:44:33;;;;;;;0.10;0.10;;;8.40;99.90;;;;;;4965907;28;20054;-67
2024/01/01 12:46:59;;;;;;;0.10;0.10;;;8.30;99.90;;;;;;4970309;28;20594;-67
2024/01/01 12:49:25;;;;;;;0.10;0.10;;;8.30;99.90;;;;;;4964595;28;20118;-67
2024/01/01 12:51:50;;;;;;;0.10;0.10;;;8.30;99.90;;;;;;4964827;28;20051;-67
2024/01/01 12:54:16;;;;;;;0.10;0.10;;;8.30;99.90;;;;;;4962646;28;20089;-67